createdAt,value
2018-05-16T00:00:54.559Z,973.23
2018-05-16T00:01:54.835Z,973.19
2018-05-16T00:02:55.043Z,973.22
2018-05-16T00:03:55.284Z,973.23
2018-05-16T00:04:55.527Z,973.17
2018-05-16T00:05:55.766Z,973.18
2018-05-16T00:06:56.010Z,973.22
2018-05-16T00:07:56.258Z,973.20
2018-05-16T00:08:56.518Z,973.20
2018-05-16T00:09:56.734Z,973.21
2018-05-16T00:10:56.976Z,973.22
2018-05-16T00:11:57.218Z,973.21
2018-05-16T00:12:57.458Z,973.21
2018-05-16T00:13:57.703Z,973.19
2018-05-16T00:14:57.939Z,973.21
2018-05-16T00:15:58.178Z,973.18
2018-05-16T00:16:58.418Z,973.22
2018-05-16T00:17:58.660Z,973.21
2018-05-16T00:18:58.904Z,973.19
2018-05-16T00:19:59.141Z,973.19
2018-05-16T00:20:59.384Z,973.20
2018-05-16T00:21:59.625Z,973.23
2018-05-16T00:22:59.867Z,973.21
2018-05-16T00:24:00.109Z,973.21
2018-05-16T00:25:00.390Z,973.23
2018-05-16T00:26:00.594Z,973.21
2018-05-16T00:27:00.834Z,973.20
2018-05-16T00:28:01.075Z,973.22
2018-05-16T00:29:01.313Z,973.25
2018-05-16T00:30:01.555Z,973.25
2018-05-16T00:31:01.797Z,973.22
2018-05-16T00:32:02.037Z,973.22
2018-05-16T00:33:02.281Z,973.24
2018-05-16T00:34:02.519Z,973.21
2018-05-16T00:35:02.761Z,973.23
2018-05-16T00:36:03.004Z,973.22
2018-05-16T00:37:03.243Z,973.20
2018-05-16T00:38:03.486Z,973.18
2018-05-16T00:39:03.727Z,973.17
2018-05-16T00:40:03.968Z,973.17
2018-05-16T00:41:04.210Z,973.17
2018-05-16T00:42:04.450Z,973.16
2018-05-16T00:43:04.689Z,973.14
2018-05-16T00:44:04.941Z,973.15
2018-05-16T00:45:05.176Z,973.12
2018-05-16T00:46:05.419Z,973.13
2018-05-16T00:47:05.659Z,973.10
2018-05-16T00:48:05.901Z,973.11
2018-05-16T00:49:06.245Z,973.08
2018-05-16T00:50:06.388Z,973.09
2018-05-16T00:51:06.628Z,973.08
2018-05-16T00:52:06.868Z,973.07
2018-05-16T00:53:07.111Z,973.08
2018-05-16T00:54:07.350Z,973.10
2018-05-16T00:55:07.593Z,973.07
2018-05-16T00:56:07.834Z,973.07
2018-05-16T00:57:08.075Z,973.04
2018-05-16T00:58:08.316Z,973.06
2018-05-16T00:59:08.556Z,973.04
2018-05-16T01:00:08.788Z,973.04
2018-05-16T01:01:09.022Z,973.05
2018-05-16T01:02:09.268Z,973.03
2018-05-16T01:03:09.508Z,972.99
2018-05-16T01:04:09.751Z,973.05
2018-05-16T01:05:09.990Z,973.07
2018-05-16T01:06:10.230Z,973.09
2018-05-16T01:07:10.471Z,973.11
2018-05-16T01:08:10.722Z,973.07
2018-05-16T01:09:10.967Z,973.05
2018-05-16T01:10:11.202Z,973.05
2018-05-16T01:11:11.445Z,973.09
2018-05-16T01:12:11.683Z,973.08
2018-05-16T01:13:11.925Z,973.09
2018-05-16T01:14:12.166Z,973.05
2018-05-16T01:15:12.409Z,973.09
2018-05-16T01:16:12.649Z,973.03
2018-05-16T01:17:12.896Z,973.05
2018-05-16T01:18:13.133Z,973.01
2018-05-16T01:19:13.373Z,973.01
2018-05-16T01:20:13.612Z,972.99
2018-05-16T01:21:13.853Z,973.02
2018-05-16T01:22:14.095Z,972.99
2018-05-16T01:23:14.337Z,973.01
2018-05-16T01:24:14.578Z,973.01
2018-05-16T01:25:14.822Z,973.02
2018-05-16T01:26:15.061Z,972.97
2018-05-16T01:27:15.302Z,973.02
2018-05-16T01:28:15.544Z,973.00
2018-05-16T01:29:15.784Z,973.01
2018-05-16T01:30:16.024Z,973.08
2018-05-16T01:31:16.268Z,973.01
2018-05-16T01:32:16.508Z,973.05
2018-05-16T01:33:16.756Z,973.04
2018-05-16T01:34:16.989Z,973.00
2018-05-16T01:35:17.230Z,973.02
2018-05-16T01:36:17.471Z,973.04
2018-05-16T01:37:17.712Z,972.99
2018-05-16T01:38:17.953Z,973.01
2018-05-16T01:39:18.193Z,973.04
2018-05-16T01:40:18.422Z,973.01
2018-05-16T01:41:18.665Z,973.02
2018-05-16T01:42:18.900Z,973.03
2018-05-16T01:43:19.139Z,973.02
2018-05-16T01:44:19.379Z,973.01
2018-05-16T01:45:19.615Z,973.05
2018-05-16T01:46:19.856Z,973.03
2018-05-16T01:47:20.098Z,973.04
2018-05-16T01:48:20.337Z,973.08
2018-05-16T01:49:20.579Z,973.09
2018-05-16T01:50:20.818Z,973.10
2018-05-16T01:51:21.060Z,973.07
2018-05-16T01:52:21.298Z,973.08
2018-05-16T01:53:21.542Z,973.09
2018-05-16T01:54:21.782Z,973.09
2018-05-16T01:55:22.024Z,973.09
2018-05-16T01:56:22.265Z,973.11
2018-05-16T01:57:22.497Z,973.10
2018-05-16T01:58:22.742Z,973.08
2018-05-16T01:59:22.987Z,973.12
2018-05-16T02:00:23.223Z,973.06
2018-05-16T02:01:23.462Z,973.10
2018-05-16T02:02:23.705Z,973.08
2018-05-16T02:03:23.944Z,973.05
2018-05-16T02:04:24.188Z,973.04
2018-05-16T02:05:24.425Z,973.05
2018-05-16T02:06:24.672Z,973.03
2018-05-16T02:07:24.906Z,973.02
2018-05-16T02:08:25.147Z,973.02
2018-05-16T02:09:25.407Z,973.01
2018-05-16T02:10:25.630Z,973.01
2018-05-16T02:11:25.869Z,972.99
2018-05-16T02:12:26.110Z,973.04
2018-05-16T02:13:26.351Z,973.09
2018-05-16T02:14:26.593Z,973.06
2018-05-16T02:15:26.833Z,973.06
2018-05-16T02:16:27.073Z,973.07
2018-05-16T02:17:27.314Z,973.06
2018-05-16T02:18:27.553Z,973.04
2018-05-16T02:19:27.794Z,973.08
2018-05-16T02:20:28.036Z,973.08
2018-05-16T02:21:28.276Z,973.13
2018-05-16T02:22:28.516Z,973.14
2018-05-16T02:23:28.756Z,973.10
2018-05-16T02:24:28.997Z,973.15
2018-05-16T02:25:29.238Z,973.10
2018-05-16T02:26:29.478Z,973.10
2018-05-16T02:27:29.718Z,973.12
2018-05-16T02:28:29.959Z,973.08
2018-05-16T02:29:30.204Z,973.05
2018-05-16T02:30:30.441Z,973.07
2018-05-16T02:31:30.682Z,973.05
2018-05-16T02:32:30.923Z,973.06
2018-05-16T02:33:31.163Z,973.05
2018-05-16T02:34:31.406Z,973.04
2018-05-16T02:35:31.654Z,973.04
2018-05-16T02:36:31.892Z,973.07
2018-05-16T02:37:32.231Z,973.06
2018-05-16T02:38:32.371Z,973.08
2018-05-16T02:39:32.611Z,973.06
2018-05-16T02:40:32.853Z,973.04
2018-05-16T02:41:33.093Z,973.03
2018-05-16T02:42:33.337Z,973.03
2018-05-16T02:43:33.574Z,973.05
2018-05-16T02:44:33.814Z,972.98
2018-05-16T02:45:34.053Z,973.02
2018-05-16T02:46:34.293Z,973.02
2018-05-16T02:47:34.551Z,973.00
2018-05-16T02:48:34.774Z,972.98
2018-05-16T02:49:35.015Z,972.98
2018-05-16T02:50:35.256Z,972.99
2018-05-16T02:51:35.496Z,972.99
2018-05-16T02:52:35.736Z,972.97
2018-05-16T02:53:35.976Z,972.96
2018-05-16T02:54:36.216Z,972.97
2018-05-16T02:55:36.458Z,973.00
2018-05-16T02:56:36.699Z,973.02
2018-05-16T02:57:36.940Z,973.02
2018-05-16T02:58:37.181Z,973.05
2018-05-16T02:59:37.422Z,973.03
2018-05-16T03:00:37.662Z,973.09
2018-05-16T03:01:37.903Z,973.08
2018-05-16T03:02:38.144Z,973.07
2018-05-16T03:03:38.385Z,973.04
2018-05-16T03:04:38.626Z,973.03
2018-05-16T03:05:38.867Z,973.04
2018-05-16T03:06:39.107Z,973.01
2018-05-16T03:07:39.348Z,973.06
2018-05-16T03:08:39.590Z,973.05
2018-05-16T03:09:39.832Z,973.10
2018-05-16T03:10:40.081Z,973.06
2018-05-16T03:11:40.318Z,973.06
2018-05-16T03:12:40.559Z,973.06
2018-05-16T03:13:40.800Z,973.08
2018-05-16T03:14:41.040Z,973.09
2018-05-16T03:15:41.282Z,973.10
2018-05-16T03:16:41.523Z,973.10
2018-05-16T03:17:41.763Z,973.12
2018-05-16T03:18:42.005Z,973.15
2018-05-16T03:19:42.250Z,973.16
2018-05-16T03:20:42.491Z,973.20
2018-05-16T03:21:42.731Z,973.16
2018-05-16T03:22:42.976Z,973.16
2018-05-16T03:23:43.229Z,973.13
2018-05-16T03:24:43.459Z,973.12
2018-05-16T03:25:43.700Z,973.10
2018-05-16T03:26:43.941Z,973.13
2018-05-16T03:27:44.183Z,973.13
2018-05-16T03:28:44.423Z,973.17
2018-05-16T03:29:44.665Z,973.19
2018-05-16T03:30:44.903Z,973.17
2018-05-16T03:31:45.137Z,973.19
2018-05-16T03:32:45.382Z,973.20
2018-05-16T03:33:45.618Z,973.24
2018-05-16T03:34:45.860Z,973.19
2018-05-16T03:35:46.105Z,973.23
2018-05-16T03:36:46.345Z,973.17
2018-05-16T03:37:46.591Z,973.15
2018-05-16T03:38:46.826Z,973.18
2018-05-16T03:39:47.070Z,973.16
2018-05-16T03:40:47.309Z,973.19
2018-05-16T03:41:47.552Z,973.15
2018-05-16T03:42:47.795Z,973.17
2018-05-16T03:43:48.032Z,973.15
2018-05-16T03:44:48.272Z,973.19
2018-05-16T03:45:48.513Z,973.19
2018-05-16T03:46:48.753Z,973.19
2018-05-16T03:47:48.995Z,973.25
2018-05-16T03:48:49.231Z,973.23
2018-05-16T03:49:49.474Z,973.26
2018-05-16T03:50:49.717Z,973.28
2018-05-16T03:51:49.960Z,973.28
2018-05-16T03:52:50.204Z,973.24
2018-05-16T03:53:50.444Z,973.28
2018-05-16T03:54:50.686Z,973.26
2018-05-16T03:55:50.931Z,973.29
2018-05-16T03:56:51.174Z,973.27
2018-05-16T03:57:51.415Z,973.28
2018-05-16T03:58:51.659Z,973.27
2018-05-16T03:59:51.909Z,973.27
2018-05-16T04:00:52.145Z,973.27
2018-05-16T04:01:52.385Z,973.26
2018-05-16T04:02:52.625Z,973.30
2018-05-16T04:03:52.865Z,973.32
2018-05-16T04:04:53.108Z,973.31
2018-05-16T04:05:53.349Z,973.31
2018-05-16T04:06:53.591Z,973.28
2018-05-16T04:07:53.830Z,973.30
2018-05-16T04:08:54.076Z,973.31
2018-05-16T04:09:54.317Z,973.28
2018-05-16T04:10:54.559Z,973.33
2018-05-16T04:11:54.802Z,973.33
2018-05-16T04:12:55.043Z,973.34
2018-05-16T04:13:55.281Z,973.37
2018-05-16T04:14:55.523Z,973.33
2018-05-16T04:15:55.764Z,973.32
2018-05-16T04:16:57.328Z,973.36
2018-05-16T04:17:56.409Z,973.37
2018-05-16T04:18:56.650Z,973.31
2018-05-16T04:19:56.892Z,973.33
2018-05-16T04:20:57.138Z,973.36
2018-05-16T04:21:57.376Z,973.36
2018-05-16T04:22:57.619Z,973.38
2018-05-16T04:23:57.864Z,973.38
2018-05-16T04:24:58.106Z,973.34
2018-05-16T04:25:58.346Z,973.38
2018-05-16T04:26:58.588Z,973.40
2018-05-16T04:27:58.833Z,973.36
2018-05-16T04:28:59.073Z,973.37
2018-05-16T04:29:59.314Z,973.35
2018-05-16T04:30:59.555Z,973.36
2018-05-16T04:31:59.796Z,973.36
2018-05-16T04:33:00.036Z,973.32
2018-05-16T04:34:00.277Z,973.36
2018-05-16T04:35:00.521Z,973.40
2018-05-16T04:36:00.771Z,973.39
2018-05-16T04:37:01.006Z,973.39
2018-05-16T04:38:01.250Z,973.39
2018-05-16T04:39:01.486Z,973.37
2018-05-16T04:40:01.728Z,973.40
2018-05-16T04:41:01.974Z,973.40
2018-05-16T04:42:02.205Z,973.41
2018-05-16T04:43:02.451Z,973.41
2018-05-16T04:44:02.693Z,973.42
2018-05-16T04:45:02.933Z,973.41
2018-05-16T04:46:03.175Z,973.45
2018-05-16T04:47:03.417Z,973.45
2018-05-16T04:48:03.660Z,973.45
2018-05-16T04:49:03.902Z,973.50
2018-05-16T04:50:04.144Z,973.50
2018-05-16T04:51:04.385Z,973.51
2018-05-16T04:52:04.629Z,973.54
2018-05-16T04:53:04.869Z,973.55
2018-05-16T04:54:05.109Z,973.58
2018-05-16T04:55:05.351Z,973.59
2018-05-16T04:56:05.593Z,973.61
2018-05-16T04:57:05.838Z,973.65
2018-05-16T04:58:06.078Z,973.60
2018-05-16T04:59:06.323Z,973.61
2018-05-16T05:00:06.560Z,973.62
2018-05-16T05:01:06.804Z,973.58
2018-05-16T05:02:07.046Z,973.55
2018-05-16T05:03:07.288Z,973.56
2018-05-16T05:04:07.530Z,973.60
2018-05-16T05:05:07.772Z,973.58
2018-05-16T05:06:08.019Z,973.56
2018-05-16T05:07:08.261Z,973.60
2018-05-16T05:08:08.506Z,973.61
2018-05-16T05:09:08.748Z,973.57
2018-05-16T05:10:08.999Z,973.62
2018-05-16T05:11:09.233Z,973.57
2018-05-16T05:12:09.475Z,973.58
2018-05-16T05:13:09.748Z,973.63
2018-05-16T05:14:09.961Z,973.64
2018-05-16T05:15:10.203Z,973.61
2018-05-16T05:16:10.446Z,973.58
2018-05-16T05:17:10.690Z,973.63
2018-05-16T05:18:11.023Z,973.63
2018-05-16T05:19:11.174Z,973.61
2018-05-16T05:20:11.416Z,973.60
2018-05-16T05:21:11.664Z,973.61
2018-05-16T05:22:11.905Z,973.61
2018-05-16T05:23:12.150Z,973.59
2018-05-16T05:24:12.388Z,973.61
2018-05-16T05:25:12.631Z,973.60
2018-05-16T05:26:12.874Z,973.57
2018-05-16T05:27:13.118Z,973.60
2018-05-16T05:28:13.359Z,973.63
2018-05-16T05:29:13.606Z,973.62
2018-05-16T05:30:13.967Z,973.67
2018-05-16T05:31:14.098Z,973.61
2018-05-16T05:32:14.338Z,973.63
2018-05-16T05:33:14.583Z,973.65
2018-05-16T05:34:14.826Z,973.71
2018-05-16T05:35:15.068Z,973.70
2018-05-16T05:36:15.309Z,973.74
2018-05-16T05:37:15.551Z,973.73
2018-05-16T05:38:15.793Z,973.75
2018-05-16T05:39:16.036Z,973.77
2018-05-16T05:40:16.279Z,973.77
2018-05-16T05:41:16.521Z,973.77
2018-05-16T05:42:16.764Z,973.82
2018-05-16T05:43:17.041Z,973.83
2018-05-16T05:44:17.250Z,973.87
2018-05-16T05:45:17.494Z,973.87
2018-05-16T05:46:17.735Z,973.85
2018-05-16T05:47:17.979Z,973.88
2018-05-16T05:48:18.224Z,973.88
2018-05-16T05:49:18.520Z,973.90
2018-05-16T05:50:18.753Z,973.92
2018-05-16T05:51:19.025Z,973.92
2018-05-16T05:52:19.268Z,973.96
2018-05-16T05:53:19.518Z,973.95
2018-05-16T05:54:19.792Z,973.92
2018-05-16T05:55:19.999Z,974.01
2018-05-16T05:56:20.235Z,973.96
2018-05-16T05:57:20.484Z,973.96
2018-05-16T05:58:20.730Z,973.98
2018-05-16T05:59:20.992Z,973.99
2018-05-16T06:00:21.642Z,973.96
2018-05-16T06:01:21.681Z,973.96
2018-05-16T06:02:21.927Z,973.95
2018-05-16T06:03:22.205Z,973.95
2018-05-16T06:04:22.478Z,973.95
2018-05-16T06:05:22.760Z,973.94
2018-05-16T06:06:22.989Z,973.91
2018-05-16T06:07:23.238Z,973.93
2018-05-16T06:08:23.479Z,973.91
2018-05-16T06:09:23.725Z,973.98
2018-05-16T06:10:23.968Z,973.96
2018-05-16T06:11:24.214Z,973.98
2018-05-16T06:12:24.498Z,973.99
2018-05-16T06:13:24.741Z,973.97
2018-05-16T06:14:24.986Z,973.99
2018-05-16T06:15:25.230Z,974.01
2018-05-16T06:16:25.475Z,974.00
2018-05-16T06:17:25.718Z,973.99
2018-05-16T06:18:25.963Z,974.05
2018-05-16T06:19:26.312Z,974.04
2018-05-16T06:20:26.445Z,974.03
2018-05-16T06:21:26.690Z,974.02
2018-05-16T06:22:26.935Z,974.09
2018-05-16T06:23:27.179Z,974.06
2018-05-16T06:24:27.458Z,974.04
2018-05-16T06:25:27.709Z,974.07
2018-05-16T06:26:27.949Z,974.10
2018-05-16T06:27:28.232Z,974.14
2018-05-16T06:28:28.440Z,974.17
2018-05-16T06:29:28.681Z,974.19
2018-05-16T06:30:28.926Z,974.19
2018-05-16T06:31:29.173Z,974.16
2018-05-16T06:32:29.411Z,974.15
2018-05-16T06:33:29.654Z,974.17
2018-05-16T06:34:29.898Z,974.16
2018-05-16T06:35:30.142Z,974.14
2018-05-16T06:36:30.401Z,974.10
2018-05-16T06:37:30.633Z,974.07
2018-05-16T06:38:30.878Z,974.07
2018-05-16T06:39:31.127Z,974.12
2018-05-16T06:40:31.370Z,974.10
2018-05-16T06:41:31.614Z,974.12
2018-05-16T06:42:31.858Z,974.10
2018-05-16T06:43:32.101Z,974.09
2018-05-16T06:44:32.345Z,974.11
2018-05-16T06:45:32.588Z,974.13
2018-05-16T06:46:32.833Z,974.06
2018-05-16T06:47:33.080Z,974.14
2018-05-16T06:48:33.325Z,974.13
2018-05-16T06:49:33.573Z,974.10
2018-05-16T06:50:33.818Z,974.09
2018-05-16T06:51:34.090Z,974.10
2018-05-16T06:52:34.310Z,974.12
2018-05-16T06:53:34.563Z,974.15
2018-05-16T06:54:34.801Z,974.17
2018-05-16T06:55:35.048Z,974.15
2018-05-16T06:56:35.296Z,974.15
2018-05-16T06:57:35.539Z,974.16
2018-05-16T06:58:35.784Z,974.21
2018-05-16T06:59:36.035Z,974.25
2018-05-16T07:00:36.295Z,974.31
2018-05-16T07:01:36.538Z,974.27
2018-05-16T07:02:36.761Z,974.26
2018-05-16T07:03:37.009Z,974.28
2018-05-16T07:04:37.257Z,974.28
2018-05-16T07:05:37.499Z,974.30
2018-05-16T07:06:37.746Z,974.28
2018-05-16T07:07:37.993Z,974.27
2018-05-16T07:08:38.239Z,974.28
2018-05-16T07:09:38.487Z,974.26
2018-05-16T07:10:38.733Z,974.24
2018-05-16T07:11:38.987Z,974.28
2018-05-16T07:12:39.232Z,974.30
2018-05-16T07:13:39.474Z,974.31
2018-05-16T07:14:39.722Z,974.33
2018-05-16T07:15:39.970Z,974.28
2018-05-16T07:16:40.219Z,974.24
2018-05-16T07:17:40.461Z,974.33
2018-05-16T07:18:40.718Z,974.31
2018-05-16T07:19:40.962Z,974.33
2018-05-16T07:20:41.208Z,974.34
2018-05-16T07:21:41.456Z,974.34
2018-05-16T07:22:41.700Z,974.37
2018-05-16T07:23:41.940Z,974.31
2018-05-16T07:24:42.189Z,974.34
2018-05-16T07:25:42.435Z,974.31
2018-05-16T07:26:42.685Z,974.28
2018-05-16T07:27:42.939Z,974.26
2018-05-16T07:28:43.187Z,974.28
2018-05-16T07:29:43.392Z,974.30
2018-05-16T07:30:43.632Z,974.31
2018-05-16T07:31:43.868Z,974.33
2018-05-16T07:32:44.144Z,974.34
2018-05-16T07:33:44.359Z,974.38
2018-05-16T07:34:44.596Z,974.39
2018-05-16T07:35:44.845Z,974.43
2018-05-16T07:36:45.088Z,974.44
2018-05-16T07:37:45.332Z,974.41
2018-05-16T07:38:45.584Z,974.44
2018-05-16T07:39:45.833Z,974.39
2018-05-16T07:40:46.047Z,974.43
2018-05-16T07:41:46.284Z,974.51
2018-05-16T07:42:46.510Z,974.53
2018-05-16T07:43:46.763Z,974.56
2018-05-16T07:44:47.033Z,974.50
2018-05-16T07:45:47.266Z,974.47
2018-05-16T07:46:47.511Z,974.44
2018-05-16T07:47:47.743Z,974.47
2018-05-16T07:48:47.985Z,974.51
2018-05-16T07:49:48.232Z,974.54
2018-05-16T07:50:48.477Z,974.51
2018-05-16T07:51:48.717Z,974.51
2018-05-16T07:52:48.957Z,974.55
2018-05-16T07:53:49.188Z,974.55
2018-05-16T07:54:49.427Z,974.58
2018-05-16T07:55:49.674Z,974.60
2018-05-16T07:56:49.903Z,974.59
2018-05-16T07:57:50.155Z,974.60
2018-05-16T07:58:50.420Z,974.59
2018-05-16T07:59:50.643Z,974.61
2018-05-16T08:00:50.921Z,974.70
2018-05-16T08:01:51.170Z,974.74
2018-05-16T08:02:51.413Z,974.76
2018-05-16T08:03:51.707Z,974.70
2018-05-16T08:04:51.959Z,974.64
2018-05-16T08:05:59.917Z,974.72
2018-05-16T08:07:02.280Z,974.68
2018-05-16T08:07:52.978Z,974.75
2018-05-16T08:08:53.180Z,974.68
2018-05-16T08:10:03.189Z,974.69
2018-05-16T08:10:53.604Z,974.83
2018-05-16T08:12:02.516Z,974.72
2018-05-16T08:13:02.952Z,974.68
2018-05-16T08:14:03.286Z,974.64
2018-05-16T08:15:03.715Z,974.64
2018-05-16T08:16:04.080Z,974.78
2018-05-16T08:17:04.458Z,974.86
2018-05-16T08:18:04.875Z,974.75
2018-05-16T08:19:05.579Z,974.77
2018-05-16T08:20:05.599Z,974.80
2018-05-16T08:21:05.939Z,974.87
2018-05-16T08:21:57.698Z,974.83
2018-05-16T08:22:57.936Z,974.81
2018-05-16T08:23:58.198Z,974.81
2018-05-16T08:24:58.437Z,974.83
2018-05-16T08:25:58.683Z,974.79
2018-05-16T08:26:58.938Z,974.85
2018-05-16T08:27:59.195Z,974.82
2018-05-16T08:28:59.430Z,974.83
2018-05-16T08:29:59.674Z,974.84
2018-05-16T08:30:59.981Z,974.87
2018-05-16T08:32:00.175Z,974.90
2018-05-16T08:33:00.415Z,974.90
2018-05-16T08:34:00.659Z,974.89
2018-05-16T08:35:00.903Z,974.90
2018-05-16T08:36:01.155Z,974.89
2018-05-16T08:37:01.418Z,974.89
2018-05-16T08:38:01.640Z,974.87
2018-05-16T08:39:01.887Z,974.84
2018-05-16T08:40:02.147Z,974.85
2018-05-16T08:41:02.389Z,974.78
2018-05-16T08:42:02.634Z,974.85
2018-05-16T08:43:02.976Z,974.88
2018-05-16T08:44:03.142Z,974.90
2018-05-16T08:45:03.390Z,974.89
2018-05-16T08:46:03.628Z,974.87
2018-05-16T08:47:03.866Z,974.87
2018-05-16T08:48:04.125Z,974.85
2018-05-16T08:49:04.360Z,974.84
2018-05-16T08:50:04.588Z,974.89
2018-05-16T08:51:04.864Z,975.07
2018-05-16T08:52:05.094Z,974.92
2018-05-16T08:53:05.339Z,974.94
2018-05-16T08:54:05.578Z,974.93
2018-05-16T08:55:05.815Z,974.95
2018-05-16T08:56:06.056Z,975.30
2018-05-16T08:57:06.306Z,975.02
2018-05-16T08:58:06.550Z,975.50
2018-05-16T08:59:06.805Z,975.09
2018-05-16T09:00:07.048Z,975.19
2018-05-16T09:01:07.335Z,974.97
2018-05-16T09:02:07.538Z,974.97
2018-05-16T09:03:07.835Z,974.90
2018-05-16T09:04:08.102Z,974.83
2018-05-16T09:05:08.348Z,974.84
2018-05-16T09:06:08.592Z,974.90
2018-05-16T09:07:08.834Z,974.91
2018-05-16T09:08:09.087Z,975.00
2018-05-16T09:09:09.338Z,975.19
2018-05-16T09:10:09.584Z,975.01
2018-05-16T09:11:10.182Z,975.02
2018-05-16T09:12:10.230Z,975.14
2018-05-16T09:13:10.478Z,975.00
2018-05-16T09:14:10.738Z,975.20
2018-05-16T09:15:10.977Z,975.19
2018-05-16T09:16:11.207Z,975.23
2018-05-16T09:17:11.472Z,975.22
2018-05-16T09:18:11.701Z,975.21
2018-05-16T09:19:11.947Z,975.22
2018-05-16T09:20:12.201Z,975.21
2018-05-16T09:21:13.014Z,975.21
2018-05-16T09:22:12.762Z,975.18
2018-05-16T09:23:13.008Z,975.16
2018-05-16T09:24:13.260Z,975.18
2018-05-16T09:25:13.599Z,975.19
2018-05-16T09:26:13.757Z,975.20
2018-05-16T09:27:14.007Z,975.18
2018-05-16T09:28:14.246Z,975.20
2018-05-16T09:29:14.497Z,974.99
2018-05-16T09:30:14.747Z,974.98
2018-05-16T09:31:14.999Z,975.25
2018-05-16T09:32:15.250Z,975.20
2018-05-16T09:33:15.506Z,975.23
2018-05-16T09:34:15.768Z,975.21
2018-05-16T09:35:16.018Z,975.21
2018-05-16T09:36:16.278Z,975.26
2018-05-16T09:37:16.529Z,975.20
2018-05-16T09:38:16.791Z,975.18
2018-05-16T09:39:17.039Z,975.11
2018-05-16T09:40:17.339Z,975.11
2018-05-16T09:41:17.552Z,975.31
2018-05-16T09:42:17.803Z,975.24
2018-05-16T09:43:18.057Z,975.31
2018-05-16T09:44:18.392Z,975.34
2018-05-16T09:45:18.566Z,975.31
2018-05-16T09:46:18.809Z,975.10
2018-05-16T09:47:19.065Z,975.03
2018-05-16T09:48:19.316Z,974.98
2018-05-16T09:49:19.569Z,974.94
2018-05-16T09:50:19.825Z,974.89
2018-05-16T09:51:20.082Z,975.06
2018-05-16T09:52:20.338Z,974.86
2018-05-16T09:53:20.595Z,974.85
2018-05-16T09:54:20.848Z,975.14
2018-05-16T09:55:21.102Z,974.83
2018-05-16T09:56:21.356Z,974.89
2018-05-16T09:57:21.609Z,975.20
2018-05-16T09:58:21.867Z,974.89
2018-05-16T09:59:22.115Z,975.02
2018-05-16T10:00:22.369Z,974.83
2018-05-16T10:01:22.622Z,974.91
2018-05-16T10:02:22.875Z,974.98
2018-05-16T10:03:23.127Z,975.09
2018-05-16T10:04:23.381Z,975.60
2018-05-16T10:05:23.633Z,975.36
2018-05-16T10:06:23.886Z,975.19
2018-05-16T10:07:24.138Z,975.03
2018-05-16T10:08:24.391Z,975.18
2018-05-16T10:09:24.643Z,975.03
2018-05-16T10:10:24.895Z,974.99
2018-05-16T10:11:25.146Z,975.02
2018-05-16T10:12:25.399Z,976.04
2018-05-16T10:13:25.652Z,976.07
2018-05-16T10:14:25.905Z,975.86
2018-05-16T10:15:26.157Z,975.09
2018-05-16T10:16:26.410Z,976.16
2018-05-16T10:17:26.662Z,975.17
2018-05-16T10:18:26.914Z,975.27
2018-05-16T10:19:27.166Z,975.72
2018-05-16T10:20:27.420Z,975.15
2018-05-16T10:21:27.673Z,975.08
2018-05-16T10:22:27.924Z,975.08
2018-05-16T10:23:28.176Z,975.04
2018-05-16T10:24:28.428Z,975.01
2018-05-16T10:25:28.681Z,975.03
2018-05-16T10:26:28.934Z,975.02
2018-05-16T10:27:29.185Z,975.04
2018-05-16T10:28:29.437Z,976.18
2018-05-16T10:29:29.689Z,975.06
2018-05-16T10:30:29.945Z,975.05
2018-05-16T10:31:30.193Z,975.73
2018-05-16T10:32:30.445Z,975.20
2018-05-16T10:33:30.697Z,975.99
2018-05-16T10:34:30.960Z,975.05
2018-05-16T10:35:31.202Z,975.10
2018-05-16T10:36:31.453Z,975.07
2018-05-16T10:37:31.706Z,975.09
2018-05-16T10:38:31.956Z,975.04
2018-05-16T10:39:32.208Z,975.03
2018-05-16T10:40:32.459Z,975.29
2018-05-16T10:41:32.722Z,975.08
2018-05-16T10:42:32.963Z,975.06
2018-05-16T10:43:33.213Z,974.99
2018-05-16T10:44:33.464Z,974.97
2018-05-16T10:45:33.716Z,974.96
2018-05-16T10:46:33.968Z,975.01
2018-05-16T10:47:34.219Z,974.97
2018-05-16T10:48:34.468Z,974.93
2018-05-16T10:49:34.720Z,975.00
2018-05-16T10:50:34.972Z,975.49
2018-05-16T10:51:35.223Z,975.46
2018-05-16T10:52:35.475Z,975.39
2018-05-16T10:53:35.726Z,974.98
2018-05-16T10:54:36.072Z,974.99
2018-05-16T10:55:36.232Z,974.98
2018-05-16T10:56:36.479Z,974.97
2018-05-16T10:57:36.732Z,974.94
2018-05-16T10:58:36.985Z,974.94
2018-05-16T10:59:37.235Z,974.95
2018-05-16T11:00:37.487Z,974.88
2018-05-16T11:01:37.738Z,974.90
2018-05-16T11:02:37.998Z,974.87
2018-05-16T11:03:38.248Z,974.87
2018-05-16T11:04:38.528Z,974.85
2018-05-16T11:05:38.810Z,974.80
2018-05-16T11:06:39.059Z,974.78
2018-05-16T11:07:39.332Z,974.80
2018-05-16T11:08:39.623Z,974.83
2018-05-16T11:09:39.875Z,974.82
2018-05-16T11:10:40.202Z,974.78
2018-05-16T11:11:40.456Z,974.82
2018-05-16T11:12:40.742Z,974.78
2018-05-16T11:13:40.999Z,974.79
2018-05-16T11:14:41.248Z,974.78
2018-05-16T11:15:41.531Z,974.74
2018-05-16T11:16:41.798Z,974.72
2018-05-16T11:17:42.072Z,974.74
2018-05-16T11:18:42.345Z,974.73
2018-05-16T11:19:42.672Z,974.72
2018-05-16T11:20:43.044Z,974.71
2018-05-16T11:21:43.063Z,974.70
2018-05-16T11:22:43.312Z,974.72
2018-05-16T11:23:43.565Z,974.73
2018-05-16T11:24:43.866Z,974.76
2018-05-16T11:25:44.115Z,974.70
2018-05-16T11:26:44.418Z,974.71
2018-05-16T11:27:44.804Z,974.72
2018-05-16T11:28:45.056Z,974.71
2018-05-16T11:29:45.305Z,974.68
2018-05-16T11:30:45.554Z,974.69
2018-05-16T11:31:45.838Z,974.74
2018-05-16T11:32:46.109Z,974.73
2018-05-16T11:33:46.359Z,974.73
2018-05-16T11:34:46.607Z,974.74
2018-05-16T11:35:46.880Z,974.72
2018-05-16T11:36:47.136Z,974.74
2018-05-16T11:37:47.386Z,974.74
2018-05-16T11:38:47.961Z,974.75
2018-05-16T11:39:47.924Z,974.83
2018-05-16T11:40:48.174Z,974.88
2018-05-16T11:41:48.425Z,975.02
2018-05-16T11:42:48.806Z,974.98
2018-05-16T11:43:48.924Z,975.08
2018-05-16T11:44:49.175Z,975.08
2018-05-16T11:45:49.428Z,974.92
2018-05-16T11:46:49.683Z,974.84
2018-05-16T11:47:49.942Z,974.87
2018-05-16T11:48:50.213Z,974.87
2018-05-16T11:49:50.492Z,974.85
2018-05-16T11:50:50.750Z,974.82
2018-05-16T11:51:51.004Z,974.81
2018-05-16T11:52:51.256Z,974.81
2018-05-16T11:53:51.507Z,974.86
2018-05-16T11:54:51.758Z,974.82
2018-05-16T11:55:52.009Z,974.79
2018-05-16T11:56:52.259Z,974.78
2018-05-16T11:57:52.510Z,974.79
2018-05-16T11:58:52.761Z,974.86
2018-05-16T11:59:53.011Z,975.08
2018-05-16T12:00:53.261Z,974.77
2018-05-16T12:01:53.515Z,974.82
2018-05-16T12:02:53.795Z,974.73
2018-05-16T12:03:54.020Z,974.67
2018-05-16T12:04:54.269Z,974.70
2018-05-16T12:05:54.519Z,974.70
2018-05-16T12:06:54.771Z,974.66
2018-05-16T12:07:55.025Z,974.66
2018-05-16T12:08:55.273Z,974.88
2018-05-16T12:09:55.524Z,974.93
2018-05-16T12:10:56.057Z,974.86
2018-05-16T12:11:56.094Z,974.79
2018-05-16T12:12:56.347Z,974.67
2018-05-16T12:13:56.599Z,974.64
2018-05-16T12:14:56.882Z,974.62
2018-05-16T12:15:57.103Z,974.62
2018-05-16T12:16:57.354Z,974.57
2018-05-16T12:17:57.617Z,974.56
2018-05-16T12:18:57.861Z,974.60
2018-05-16T12:19:58.112Z,974.58
2018-05-16T12:20:58.365Z,974.54
2018-05-16T12:21:58.618Z,974.52
2018-05-16T12:22:58.869Z,974.56
2018-05-16T12:23:59.138Z,974.49
2018-05-16T12:24:59.373Z,974.50
2018-05-16T12:25:59.626Z,974.55
2018-05-16T12:26:59.877Z,974.50
2018-05-16T12:28:00.137Z,974.60
2018-05-16T12:29:00.422Z,974.59
2018-05-16T12:30:00.643Z,974.67
2018-05-16T12:31:00.896Z,974.68
2018-05-16T12:32:01.143Z,974.67